Terminal Aerodrome Forecast
Issued by NWS

Home | Current Version | Previous Version | Text Only | Print | Product List | Glossary On
Versions: 1 2 3 4 5 6 7 8 9 10 11 12 13 14 15
000
FTUS46 KLOX 221100
TAFBUR
TAF
KBUR 221128Z 2212/2312 VRB03KT P6SM SCT250
     FM222100 17008KT P6SM BKN200
     FM230400 VRB03KT P6SM BKN200
     FM230800 02007KT P6SM SCT200=

USA.gov is the U.S. government's official web portal to all federal, state and local government web resources and services.